Time;durP1;ratioP1;P1;durP2;ratioP2;P2;SDS_P1;SDS_P2;PMS_P1;PMS_P2;Temp;Humidity;BMP_temperature;BMP_pressure;BME280_temperature;BME280_humidity;BME280_pressure;Samples;Min_cycle;Max_cycle;Signal;HPM_P1;HPM_P2
2022/12/01 00:00:38;;;;;;;2.43;2.23;;;;;;;5.61;nan;-23973.34;5032910;28;20653;-77
2022/12/01 00:03:03;;;;;;;2.77;2.53;;;;;;;5.49;nan;-23969.91;5032942;28;20314;-78
2022/12/01 00:05:29;;;;;;;2.97;2.57;;;;;;;5.59;nan;-23972.75;5034222;28;20184;-78
2022/12/01 00:07:56;;;;;;;4.03;2.67;;;;;;;5.73;nan;-23976.75;5034895;28;20183;-77
2022/12/01 00:10:24;;;;;;;2.10;1.97;;;;;;;5.76;nan;-23977.59;5035113;28;20166;-78
2022/12/01 00:13:00;;;;;;;3.10;2.27;;;;;;;5.67;nan;-23975.03;5033387;28;20544;-77
2022/12/01 00:15:28;;;;;;;2.67;2.47;;;;;;;5.68;nan;-23975.47;5034417;28;20242;-78
2022/12/01 00:17:53;;;;;;;2.77;2.50;;;;;;;5.49;nan;-23969.91;5034314;28;20284;-78
2022/12/01 00:20:19;;;;;;;3.43;2.70;;;;;;;5.82;nan;-23979.31;5034515;28;20292;-77
2022/12/01 00:22:46;;;;;;;2.60;2.40;;;;;;;5.67;nan;-23975.19;5034495;28;20224;-78
2022/12/01 00:25:13;;;;;;;2.93;2.63;;;;;;;5.76;nan;-23977.75;5034564;28;20168;-79
2022/12/01 00:27:39;;;;;;;2.40;2.20;;;;;;;5.72;nan;-23976.59;5034028;28;20183;-79
2022/12/01 00:30:07;;;;;;;3.20;2.83;;;;;;;5.77;nan;-23977.88;5034495;28;20591;-79
2022/12/01 00:32:33;;;;;;;2.60;2.40;;;;;;;5.80;nan;-23978.72;5032272;28;20194;-79
2022/12/01 00:34:58;;;;;;;2.13;1.97;;;;;;;5.66;nan;-23974.91;5033520;28;20191;-78
2022/12/01 00:37:24;;;;;;;3.23;2.40;;;;;;;5.48;nan;-23969.78;5033717;28;20222;-79
2022/12/01 00:39:49;;;;;;;3.90;2.53;;;;;;;5.74;nan;-23977.03;5034443;28;20262;-78
2022/12/01 00:42:15;;;;;;;4.37;2.73;;;;;;;5.54;nan;-23971.47;5032795;28;20183;-79
2022/12/01 00:44:40;;;;;;;2.47;2.27;;;;;;;5.46;nan;-23969.06;5034577;28;20175;-80
2022/12/01 00:47:06;;;;;;;2.90;2.23;;;;;;;1.85;nan;-23867.31;5034199;28;20180;-78
2022/12/01 00:49:31;;;;;;;3.43;2.90;;;;;;;5.63;nan;-23974.03;5033985;28;20627;-79
2022/12/01 00:51:57;;;;;;;4.53;2.87;;;;;;;5.64;nan;-23974.31;5032909;28;20627;-78
2022/12/01 00:54:22;;;;;;;8.67;2.50;;;;;;;5.64;nan;-23974.31;5032497;28;20681;-79
2022/12/01 00:56:48;;;;;;;2.93;2.03;;;;;;;5.60;nan;-23973.03;5034435;28;20225;-78
2022/12/01 00:59:13;;;;;;;3.10;2.40;;;;;;;5.76;nan;-23977.59;5032473;28;20195;-79
2022/12/01 01:01:39;;;;;;;2.93;2.37;;;;;;;5.70;nan;-23975.88;5032074;28;20292;-79
2022/12/01 01:04:05;;;;;;;5.03;2.47;;;;;;;5.60;nan;-23973.03;5033390;28;20179;-78
2022/12/01 01:06:30;;;;;;;2.67;2.33;;;;;;;5.50;nan;-23970.22;5033680;28;20176;-79
2022/12/01 01:08:56;;;;;;;3.33;2.27;;;;;;;5.67;nan;-23975.03;5031941;28;20225;-80
2022/12/01 01:11:21;;;;;;;2.30;2.07;;;;;;;5.65;nan;-23974.47;5033327;28;20183;-79
2022/12/01 01:13:46;;;;;;;4.40;2.30;;;;;;;5.64;nan;-23974.19;5032148;28;20206;-78
2022/12/01 01:16:18;;;;;;;2.30;2.10;;;;;;;5.40;nan;-23967.38;5033186;28;20175;-78
2022/12/01 01:18:44;;;;;;;1.53;1.43;;;;;;;5.53;nan;-23971.19;5033601;28;20747;-79
2022/12/01 01:21:13;;;;;;;2.53;1.90;;;;;;;5.52;nan;-23970.78;5033414;28;20184;-78
2022/12/01 01:23:38;;;;;;;3.10;2.20;;;;;;;5.33;nan;-23965.66;5031371;28;20680;-78
2022/12/01 01:26:07;;;;;;;2.57;1.90;;;;;;;3.71;nan;-23919.81;5034087;28;20280;-79
2022/12/01 01:28:32;;;;;;;2.10;2.00;;;;;;;5.50;nan;-23970.34;5033280;28;20671;-78
2022/12/01 01:30:58;;;;;;;1.80;1.70;;;;;;;5.69;nan;-23975.59;5031974;28;20179;-79
2022/12/01 01:33:23;;;;;;;3.37;2.00;;;;;;;5.33;nan;-23965.66;5032902;28;20171;-78
2022/12/01 01:35:49;;;;;;;2.00;1.80;;;;;;;5.74;nan;-23977.16;5032299;28;20203;-79
2022/12/01 01:38:15;;;;;;;1.90;1.80;;;;;;;5.75;nan;-23977.31;5033480;28;20595;-78
2022/12/01 01:40:46;;;;;;;2.00;1.90;;;;;;;5.38;nan;-23966.94;5033574;28;20238;-79
2022/12/01 01:43:14;;;;;;;2.77;2.27;;;;;;;5.42;nan;-23967.94;5032765;28;20186;-78
2022/12/01 01:45:40;;;;;;;1.80;1.70;;;;;;;5.83;nan;-23979.59;5033006;28;20183;-78
2022/12/01 01:48:06;;;;;;;2.67;1.80;;;;;;;5.54;nan;-23971.47;5033190;28;20186;-78
2022/12/01 01:50:32;;;;;;;2.57;2.20;;;;;;;5.50;nan;-23970.34;5032434;28;20175;-79
2022/12/01 01:53:01;;;;;;;2.07;1.87;;;;;;;5.66;nan;-23974.75;5032557;28;20195;-79
2022/12/01 01:55:33;;;;;;;1.87;1.73;;;;;;;5.72;nan;-23976.59;5031863;28;20210;-79
2022/12/01 01:58:00;;;;;;;2.50;2.30;;;;;;;5.68;nan;-23975.31;5032976;28;20306;-79
2022/12/01 02:00:26;;;;;;;1.90;1.80;;;;;;;5.46;nan;-23969.06;5033790;28;20220;-79
2022/12/01 02:02:52;;;;;;;2.43;2.07;;;;;;;5.41;nan;-23967.78;5034396;28;20227;-79
2022/12/01 02:05:20;;;;;;;2.00;1.87;;;;;;;5.74;nan;-23977.03;5032149;28;20214;-79
2022/12/01 02:07:46;;;;;;;2.67;2.00;;;;;;;5.33;nan;-23965.66;5032944;28;20193;-79
2022/12/01 02:10:14;;;;;;;1.60;1.50;;;;;;;5.54;nan;-23971.47;5031989;28;20175;-78
2022/12/01 02:12:58;;;;;;;2.00;1.80;;;;;;;5.70;nan;-23975.88;5034460;28;20643;-79
2022/12/01 02:15:36;;;;;;;2.70;1.50;;;;;;;5.38;nan;-23966.94;5033044;28;20274;-80
2022/12/01 02:18:32;;;;;;;7.17;2.00;;;;;;;5.71;nan;-23976.31;5032608;28;20260;-79
2022/12/01 02:21:34;;;;;;;1.80;1.70;;;;;;;5.78;nan;-23978.31;5033618;28;20627;-80
2022/12/01 02:24:27;;;;;;;2.47;1.67;;;;;;;5.69;nan;-23975.75;5035206;28;20696;-81
2022/12/01 02:27:36;;;;;;;1.67;1.53;;;;;;;5.45;nan;-23968.94;5034646;28;20182;-79
2022/12/01 02:30:12;;;;;;;1.93;1.57;;;;;;;5.61;nan;-23973.47;5012987;28;20195;-79
2022/12/01 02:32:53;;;;;;;1.97;1.77;;;;;;;5.71;nan;-23976.31;5013340;28;20175;-79
2022/12/01 02:35:47;;;;;;;2.03;1.83;;;;;;;5.65;nan;-23974.59;5013351;28;20164;-80
2022/12/01 02:38:25;;;;;;;1.50;1.40;;;;;;;5.67;nan;-23975.03;5013310;28;20218;-80
2022/12/01 02:41:26;;;;;;;2.33;1.87;;;;;;;5.63;nan;-23974.03;5014519;28;20218;-81
2022/12/01 02:44:06;;;;;;;1.60;1.40;;;;;;;5.40;nan;-23967.50;5006976;28;20253;-78
2022/12/01 02:46:40;;;;;;;1.97;1.87;;;;;;;5.33;nan;-23965.50;5014851;28;20256;-78
2022/12/01 02:49:31;;;;;;;2.27;1.90;;;;;;;5.84;nan;-23979.88;5012908;28;20211;-79
2022/12/01 02:51:57;;;;;;;3.80;1.40;;;;;;;5.44;nan;-23968.50;5012100;28;20195;-79
2022/12/01 02:54:26;;;;;;;1.70;1.60;;;;;;;5.30;nan;-23964.81;5012804;28;20176;-79
2022/12/01 02:56:52;;;;;;;1.50;1.30;;;;;;;5.76;nan;-23977.59;5011537;28;20222;-79
2022/12/01 02:59:18;;;;;;;1.67;1.57;;;;;;;5.73;nan;-23976.88;5010978;28;20292;-79
2022/12/01 03:02:02;;;;;;;2.30;2.10;;;;;;;5.91;nan;-23981.88;5012755;28;20231;-81
2022/12/01 03:04:54;;;;;;;1.63;1.53;;;;;;;5.88;nan;-23981.00;5012221;28;20643;-79
2022/12/01 03:07:20;;;;;;;1.97;1.60;;;;;;;5.70;nan;-23975.88;5011263;28;20191;-79
2022/12/01 03:10:27;;;;;;;1.50;1.40;;;;;;;5.72;nan;-23976.47;5010684;28;20180;-79
2022/12/01 03:13:36;;;;;;;1.80;1.70;;;;;;;5.69;nan;-23975.59;4970139;28;20177;-79
2022/12/01 03:16:13;;;;;;;1.40;1.30;;;;;;;5.69;nan;-23975.59;4971217;28;20201;-78
2022/12/01 03:18:51;;;;;;;1.77;1.67;;;;;;;5.76;nan;-23977.59;5006127;28;20711;-80
2022/12/01 03:21:19;;;;;;;1.70;1.60;;;;;;;5.78;nan;-23978.31;5011965;28;20180;-79
2022/12/01 03:23:50;;;;;;;1.23;1.20;;;;;;;5.78;nan;-23978.16;5010758;28;20176;-79
2022/12/01 03:26:20;;;;;;;1.70;1.60;;;;;;;5.69;nan;-23975.75;5026997;28;20195;-79
2022/12/01 03:28:51;;;;;;;1.57;1.47;;;;;;;5.57;nan;-23972.34;5011942;28;20191;-79
2022/12/01 03:31:21;;;;;;;1.40;1.30;;;;;;;5.74;nan;-23977.03;5010483;28;20169;-78
2022/12/01 03:33:53;;;;;;;1.53;1.43;;;;;;;5.58;nan;-23972.47;5010346;28;20180;-78
2022/12/01 03:36:24;;;;;;;1.93;1.60;;;;;;;5.44;nan;-23968.63;5010466;28;20176;-79
2022/12/01 03:38:55;;;;;;;1.17;1.13;;;;;;;5.56;nan;-23972.06;5012223;28;20207;-79
2022/12/01 03:41:30;;;;;;;1.40;1.30;;;;;;;5.52;nan;-23970.78;5011355;28;20250;-78
2022/12/01 03:44:07;;;;;;;1.30;1.20;;;;;;;5.82;nan;-23979.31;5010353;28;20195;-78
2022/12/01 03:46:51;;;;;;;1.40;1.30;;;;;;;5.44;nan;-23968.63;5010714;28;20180;-80
2022/12/01 03:49:17;;;;;;;1.50;1.40;;;;;;;5.81;nan;-23978.88;5011573;28;20183;-79
2022/12/01 03:52:09;;;;;;;1.30;1.20;;;;;;;5.81;nan;-23978.88;5010363;28;20238;-80
2022/12/01 03:54:56;;;;;;;1.67;1.50;;;;;;;5.37;nan;-23966.66;4979911;28;20232;-80
2022/12/01 03:57:33;;;;;;;1.40;1.30;;;;;;;5.74;nan;-23977.16;5009632;28;20679;-80
2022/12/01 03:59:58;;;;;;;1.50;1.40;;;;;;;5.69;nan;-23975.59;5010338;28;20620;-78
2022/12/01 04:02:26;;;;;;;1.60;1.50;;;;;;;5.73;nan;-23976.88;5010036;28;20255;-79
2022/12/01 04:04:52;;;;;;;2.73;1.50;;;;;;;5.67;nan;-23975.19;5010106;28;20287;-80
2022/12/01 04:07:19;;;;;;;1.10;1.10;;;;;;;5.72;nan;-23976.47;5012574;28;20271;-79
2022/12/01 04:09:44;;;;;;;1.60;1.50;;;;;;;5.42;nan;-23967.94;5014568;28;20361;-81
2022/12/01 04:14:57;;;;;;;1.60;1.50;;;;;;;5.78;nan;-23978.16;5018800;28;20199;-79
2022/12/01 04:17:23;;;;;;;1.43;1.33;;;;;;;5.73;nan;-23976.75;5036961;28;20750;-80
2022/12/01 04:19:49;;;;;;;1.83;1.73;;;;;;;5.72;nan;-23976.47;5035291;28;20182;-81
2022/12/01 04:22:14;;;;;;;1.37;1.30;;;;;;;5.67;nan;-23975.03;5037774;28;20187;-80
2022/12/01 04:24:40;;;;;;;1.63;1.53;;;;;;;5.74;nan;-23977.03;5036479;28;20190;-79
2022/12/01 04:27:06;;;;;;;1.30;1.20;;;;;;;5.53;nan;-23971.06;5037289;28;20186;-78
2022/12/01 04:29:31;;;;;;;1.90;1.50;;;;;;;5.72;nan;-23976.59;5036707;28;20571;-79
2022/12/01 04:31:57;;;;;;;1.73;1.63;;;;;;;5.62;nan;-23973.75;5038729;28;20196;-78
2022/12/01 04:34:22;;;;;;;1.50;1.40;;;;;;;5.38;nan;-23966.78;5037350;28;20187;-78
2022/12/01 04:36:48;;;;;;;1.60;1.50;;;;;;;5.67;nan;-23975.03;5037505;28;20178;-80
2022/12/01 04:39:13;;;;;;;1.87;1.70;;;;;;;5.27;nan;-23963.81;5037752;28;20200;-78
2022/12/01 04:41:39;;;;;;;1.60;1.50;;;;;;;5.72;nan;-23976.59;5036447;28;20579;-79
2022/12/01 04:44:04;;;;;;;1.40;1.30;;;;;;;5.60;nan;-23973.03;5037602;28;20193;-80
2022/12/01 04:46:29;;;;;;;1.50;1.40;;;;;;;5.57;nan;-23972.34;5036259;28;20599;-79
2022/12/01 04:48:55;;;;;;;1.30;1.27;;;;;;;5.61;nan;-23973.34;5037530;28;20657;-79
2022/12/01 04:51:21;;;;;;;1.53;1.43;;;;;;;5.31;nan;-23965.09;5036709;28;20610;-80
2022/12/01 04:53:47;;;;;;;1.77;1.67;;;;;;;5.37;nan;-23966.66;5035251;28;20186;-79
2022/12/01 04:56:12;;;;;;;1.40;1.30;;;;;;;5.37;nan;-23966.66;5034591;28;20266;-79
2022/12/01 04:58:38;;;;;;;1.53;1.30;;;;;;;5.76;nan;-23977.75;5037893;28;20974;-78
2022/12/01 05:01:06;;;;;;;1.50;1.40;;;;;;;5.71;nan;-23976.16;5035082;28;20203;-79
2022/12/01 05:03:36;;;;;;;3.03;1.73;;;;;;;5.68;nan;-23975.47;5035829;28;20183;-79
2022/12/01 05:06:10;;;;;;;1.57;1.47;;;;;;;5.67;nan;-23975.03;5035972;28;20534;-80
2022/12/01 05:08:36;;;;;;;1.70;1.60;;;;;;;5.70;nan;-23975.88;5025304;28;20193;-79
2022/12/01 05:11:03;;;;;;;2.30;1.40;;;;;;;5.67;nan;-23975.19;5036724;28;20301;-78
2022/12/01 05:13:29;;;;;;;2.30;1.50;;;;;;;5.34;nan;-23965.94;5033926;28;20187;-80
2022/12/01 05:16:03;;;;;;;1.43;1.33;;;;;;;5.52;nan;-23970.78;5034851;28;20194;-79
2022/12/01 05:18:29;;;;;;;1.73;1.63;;;;;;;5.41;nan;-23967.78;5033985;28;20293;-79
2022/12/01 05:20:57;;;;;;;1.60;1.50;;;;;;;5.37;nan;-23966.50;5031825;28;20223;-80
2022/12/01 05:23:25;;;;;;;1.47;1.37;;;;;;;5.65;nan;-23974.59;5032467;28;20670;-79
2022/12/01 05:25:50;;;;;;;1.50;1.40;;;;;;;5.63;nan;-23974.03;5032880;28;20198;-79
2022/12/01 05:28:16;;;;;;;2.00;1.90;;;;;;;5.69;nan;-23975.75;5033114;28;20171;-79
2022/12/01 05:30:42;;;;;;;1.70;1.53;;;;;;;5.45;nan;-23968.94;5031828;28;20262;-80
2022/12/01 05:33:07;;;;;;;2.93;1.70;;;;;;;5.70;nan;-23975.88;5032927;28;20175;-79
2022/12/01 05:35:33;;;;;;;1.63;1.53;;;;;;;5.72;nan;-23976.47;5032056;28;20183;-79
2022/12/01 05:37:58;;;;;;;1.90;1.70;;;;;;;5.51;nan;-23970.47;5031412;28;20682;-77
2022/12/01 05:40:24;;;;;;;1.97;1.80;;;;;;;5.33;nan;-23965.66;5033178;28;20167;-78
2022/12/01 05:42:49;;;;;;;1.70;1.60;;;;;;;5.58;nan;-23972.47;5031261;28;20175;-79
2022/12/01 05:45:15;;;;;;;1.60;1.50;;;;;;;5.59;nan;-23972.91;5032798;28;20164;-78
2022/12/01 05:47:40;;;;;;;1.67;1.57;;;;;;;5.61;nan;-23973.34;5032805;28;20178;-79
2022/12/01 05:50:07;;;;;;;1.60;1.50;;;;;;;5.28;nan;-23964.22;5032853;28;20182;-79
2022/12/01 05:52:34;;;;;;;1.47;1.37;;;;;;;5.61;nan;-23973.34;5031216;28;20176;-78
2022/12/01 05:54:59;;;;;;;2.07;1.47;;;;;;;5.49;nan;-23969.91;5032673;28;20178;-77
2022/12/01 05:57:25;;;;;;;3.10;1.80;;;;;;;5.64;nan;-23974.19;5030875;28;20557;-77
2022/12/01 05:59:50;;;;;;;1.63;1.53;;;;;;;5.65;nan;-23974.47;5029570;28;20207;-79
2022/12/01 06:02:15;;;;;;;1.43;1.33;;;;;;;5.47;nan;-23969.34;5031916;28;20302;-78
2022/12/01 06:04:41;;;;;;;1.73;1.63;;;;;;;5.42;nan;-23967.94;5030960;28;20697;-78
2022/12/01 06:07:07;;;;;;;1.50;1.40;;;;;;;5.46;nan;-23969.06;5032213;28;20168;-78
2022/12/01 06:09:32;;;;;;;1.93;1.83;;;;;;;5.66;nan;-23974.91;5035305;28;20221;-77
2022/12/01 06:11:58;;;;;;;1.77;1.67;;;;;;;5.75;nan;-23977.31;5044028;28;20179;-78
2022/12/01 06:14:23;;;;;;;1.50;1.40;;;;;;;5.42;nan;-23967.94;5033830;28;20666;-77
2022/12/01 06:16:48;;;;;;;1.53;1.43;;;;;;;5.71;nan;-23976.16;5030373;28;20175;-79
2022/12/01 06:19:14;;;;;;;1.70;1.60;;;;;;;5.71;nan;-23976.16;5030581;28;20272;-77
2022/12/01 06:21:39;;;;;;;1.37;1.33;;;;;;;5.56;nan;-23971.91;5034311;28;20195;-78
2022/12/01 06:24:05;;;;;;;1.93;1.83;;;;;;;5.51;nan;-23970.63;5036768;28;20586;-78
2022/12/01 06:26:30;;;;;;;1.87;1.60;;;;;;;5.65;nan;-23974.47;5031366;28;20274;-78
2022/12/01 06:28:56;;;;;;;2.07;1.60;;;;;;;5.78;nan;-23978.31;5036597;28;20264;-77
2022/12/01 06:31:21;;;;;;;1.60;1.50;;;;;;;5.64;nan;-23974.19;5027873;28;20773;-77
2022/12/01 06:33:47;;;;;;;1.40;1.30;;;;;;;5.48;nan;-23969.63;5031751;28;20175;-79
2022/12/01 06:36:12;;;;;;;1.20;1.17;;;;;;;5.72;nan;-23976.47;5032639;28;20282;-78
2022/12/01 06:38:37;;;;;;;1.40;1.30;;;;;;;5.79;nan;-23978.44;5030772;28;20230;-76
2022/12/01 06:41:04;;;;;;;1.37;1.27;;;;;;;5.41;nan;-23967.66;5030661;28;20568;-77
2022/12/01 06:43:29;;;;;;;1.20;1.20;;;;;;;4.96;nan;-23955.13;5030562;28;20207;-79
2022/12/01 06:45:55;;;;;;;1.50;1.40;;;;;;;5.40;nan;-23967.38;5030359;28;20223;-79
2022/12/01 06:48:21;;;;;;;2.03;1.83;;;;;;;5.72;nan;-23976.59;5031818;28;20175;-78
2022/12/01 06:50:46;;;;;;;1.60;1.50;;;;;;;5.62;nan;-23973.63;5032011;28;20182;-78
2022/12/01 06:53:12;;;;;;;1.83;1.67;;;;;;;5.59;nan;-23972.75;5031756;28;20613;-77
2022/12/01 06:55:38;;;;;;;1.60;1.50;;;;;;;5.71;nan;-23976.31;5031661;28;20168;-78
2022/12/01 06:58:04;;;;;;;1.40;1.30;;;;;;;5.58;nan;-23972.47;5031643;28;20680;-82
2022/12/01 07:00:29;;;;;;;1.37;1.27;;;;;;;5.47;nan;-23969.50;5030716;28;20186;-80
2022/12/01 07:02:55;;;;;;;1.50;1.40;;;;;;;5.78;nan;-23978.16;5030277;28;20230;-80
2022/12/01 07:05:20;;;;;;;1.43;1.33;;;;;;;5.42;nan;-23967.94;5030607;28;20206;-81
2022/12/01 07:07:45;;;;;;;1.60;1.50;;;;;;;5.71;nan;-23976.16;5031905;28;20252;-81
2022/12/01 07:10:12;;;;;;;1.50;1.40;;;;;;;5.69;nan;-23975.75;5031611;28;20179;-81
2022/12/01 07:12:38;;;;;;;2.07;1.97;;;;;;;5.45;nan;-23968.94;5030236;28;20194;-79
2022/12/01 07:15:05;;;;;;;1.67;1.50;;;;;;;5.80;nan;-23978.72;5031915;28;20180;-79
2022/12/01 07:17:31;;;;;;;1.33;1.27;;;;;;;5.61;nan;-23973.34;5030196;28;20297;-80
2022/12/01 07:19:56;;;;;;;1.50;1.40;;;;;;;5.42;nan;-23967.94;5028191;28;20706;-78
2022/12/01 07:22:22;;;;;;;1.40;1.30;;;;;;;5.71;nan;-23976.16;5032622;28;20183;-79
2022/12/01 07:24:48;;;;;;;1.90;1.80;;;;;;;5.28;nan;-23964.22;5015359;28;20201;-79
2022/12/01 07:27:13;;;;;;;1.23;1.20;;;;;;;5.85;nan;-23980.00;5029656;28;20209;-78
2022/12/01 07:29:38;;;;;;;2.37;1.80;;;;;;;5.82;nan;-23979.16;5030878;28;20191;-79
2022/12/01 07:32:04;;;;;;;1.20;1.20;;;;;;;5.85;nan;-23980.16;5029770;28;20183;-77
2022/12/01 07:34:29;;;;;;;2.37;1.77;;;;;;;5.85;nan;-23980.16;5029858;28;20277;-78
2022/12/01 07:36:55;;;;;;;1.40;1.30;;;;;;;5.71;nan;-23976.16;5029727;28;20191;-78
2022/12/01 07:39:20;;;;;;;1.70;1.60;;;;;;;5.82;nan;-23979.31;5029429;28;20619;-78
2022/12/01 07:41:46;;;;;;;1.73;1.63;;;;;;;5.81;nan;-23979.00;5030178;28;20179;-78
2022/12/01 07:44:11;;;;;;;1.93;1.70;;;;;;;6.00;nan;-23984.28;5033360;28;20188;-79
2022/12/01 07:46:37;;;;;;;1.80;1.67;;;;;;;5.86;nan;-23980.44;5033460;28;20536;-77
2022/12/01 07:49:05;;;;;;;2.30;1.90;;;;;;;5.93;nan;-23982.44;5034709;28;20221;-78
2022/12/01 07:51:32;;;;;;;1.60;1.50;;;;;;;5.51;nan;-23970.47;5033059;28;20210;-76
2022/12/01 07:54:01;;;;;;;1.60;1.50;;;;;;;5.76;nan;-23977.59;5033736;28;20168;-77
2022/12/01 07:56:26;;;;;;;1.63;1.50;;;;;;;5.99;nan;-23984.00;5034222;28;20603;-77
2022/12/01 07:58:52;;;;;;;1.60;1.50;;;;;;;5.77;nan;-23977.88;5034595;28;20206;-77
2022/12/01 08:01:22;;;;;;;1.40;1.30;;;;;;;5.79;nan;-23978.44;5034322;28;20245;-78
2022/12/01 08:03:49;;;;;;;1.50;1.40;;;;;;;5.79;nan;-23978.59;5034449;28;20254;-77
2022/12/01 08:06:16;;;;;;;1.40;1.30;;;;;;;5.87;nan;-23980.72;5034611;28;20222;-77
2022/12/01 08:08:41;;;;;;;1.50;1.40;;;;;;;5.94;nan;-23982.72;5034398;28;20203;-78
2022/12/01 08:11:11;;;;;;;2.23;1.50;;;;;;;5.97;nan;-23983.41;5032804;28;20211;-77
2022/12/01 08:13:37;;;;;;;1.33;1.30;;;;;;;6.07;nan;-23986.25;5032956;28;20179;-76
2022/12/01 08:16:08;;;;;;;1.50;1.40;;;;;;;5.99;nan;-23984.00;5034318;28;20179;-77
2022/12/01 08:18:34;;;;;;;1.53;1.43;;;;;;;5.65;nan;-23974.47;5033656;28;20289;-77
2022/12/01 08:21:00;;;;;;;1.43;1.33;;;;;;;5.56;nan;-23972.06;5034208;28;20241;-77
2022/12/01 08:23:25;;;;;;;1.60;1.50;;;;;;;5.82;nan;-23979.31;5032729;28;20183;-78
2022/12/01 08:25:51;;;;;;;4.70;1.50;;;;;;;5.82;nan;-23979.16;5034373;28;20241;-78
2022/12/01 08:28:17;;;;;;;1.60;1.50;;;;;;;5.67;nan;-23975.03;5034126;28;20636;-78
2022/12/01 08:30:43;;;;;;;1.40;1.30;;;;;;;5.79;nan;-23978.59;5032774;28;20225;-77
2022/12/01 08:33:08;;;;;;;1.60;1.47;;;;;;;1.36;nan;-23853.59;5033300;28;20176;-79
2022/12/01 08:35:35;;;;;;;1.47;1.37;;;;;;;5.58;nan;-23972.63;5031889;28;20176;-76
2022/12/01 08:38:01;;;;;;;1.50;1.40;;;;;;;5.66;nan;-23974.75;5033901;28;20214;-78
2022/12/01 08:40:26;;;;;;;1.47;1.37;;;;;;;5.81;nan;-23978.88;5033868;28;20176;-76
2022/12/01 08:42:52;;;;;;;1.57;1.47;;;;;;;5.90;nan;-23981.44;5033116;28;20258;-79
2022/12/01 08:45:18;;;;;;;1.53;1.43;;;;;;;5.94;nan;-23982.72;5032033;28;20212;-77
2022/12/01 08:47:43;;;;;;;1.77;1.67;;;;;;;5.95;nan;-23982.84;5032164;28;20225;-79
2022/12/01 08:50:09;;;;;;;1.40;1.30;;;;;;;6.06;nan;-23985.97;5033941;28;20550;-78
2022/12/01 08:52:35;;;;;;;1.60;1.37;;;;;;;6.11;nan;-23987.53;5031799;28;20670;-78
2022/12/01 08:55:01;;;;;;;1.20;1.10;;;;;;;6.09;nan;-23986.97;5034423;28;20203;-78
2022/12/01 08:57:30;;;;;;;1.60;1.50;;;;;;;5.83;nan;-23979.44;5033195;28;20634;-79
2022/12/01 08:59:55;;;;;;;1.50;1.40;;;;;;;6.06;nan;-23985.97;5032165;28;20184;-79
2022/12/01 09:02:21;;;;;;;2.10;1.70;;;;;;;6.11;nan;-23987.53;5031542;28;20318;-79
2022/12/01 09:04:48;;;;;;;1.73;1.63;;;;;;;6.16;nan;-23988.97;5032343;28;20179;-79
2022/12/01 09:07:15;;;;;;;1.50;1.40;;;;;;;6.24;nan;-23990.94;5033910;28;20164;-78
2022/12/01 09:09:41;;;;;;;2.60;1.60;;;;;;;5.80;nan;-23978.72;5032359;28;20639;-78
2022/12/01 09:12:08;;;;;;;1.60;1.50;;;;;;;6.20;nan;-23990.09;5033644;28;20168;-78
2022/12/01 09:14:38;;;;;;;1.40;1.30;;;;;;;5.94;nan;-23982.72;5032480;28;20610;-79
2022/12/01 09:17:03;;;;;;;1.53;1.43;;;;;;;5.90;nan;-23981.56;5032543;28;20171;-76
2022/12/01 09:19:29;;;;;;;3.40;1.87;;;;;;;5.59;nan;-23972.75;5032920;28;20209;-79
2022/12/01 09:21:55;;;;;;;2.23;1.47;;;;;;;6.45;nan;-23997.06;5032302;28;20186;-78
2022/12/01 09:24:21;;;;;;;1.40;1.30;;;;;;;6.24;nan;-23990.94;5033417;28;20182;-78
2022/12/01 09:26:46;;;;;;;1.50;1.40;;;;;;;6.18;nan;-23989.38;5032384;28;20706;-78
2022/12/01 09:29:14;;;;;;;1.67;1.37;;;;;;;6.36;nan;-23994.50;5032196;28;20179;-79
2022/12/01 09:31:40;;;;;;;1.47;1.37;;;;;;;6.42;nan;-23996.22;5032269;28;20179;-79
2022/12/01 09:34:09;;;;;;;2.13;1.73;;;;;;;6.15;nan;-23988.69;5033469;28;20643;-79
2022/12/01 09:36:35;;;;;;;1.60;1.50;;;;;;;6.41;nan;-23995.91;5033422;28;20206;-78
2022/12/01 09:39:02;;;;;;;2.03;1.50;;;;;;;6.52;nan;-23998.91;5031881;28;20245;-78
2022/12/01 09:41:30;;;;;;;1.70;1.60;;;;;;;6.86;nan;-24008.56;5033615;28;20172;-79
2022/12/01 09:44:22;;;;;;;2.70;1.70;;;;;;;6.41;nan;-23995.78;5031619;28;20183;-79
2022/12/01 09:47:19;;;;;;;2.10;1.90;;;;;;;6.72;nan;-24004.56;5033017;28;20178;-77
2022/12/01 09:49:56;;;;;;;1.77;1.67;;;;;;;6.78;nan;-24006.28;5015731;28;20281;-78
2022/12/01 09:52:24;;;;;;;2.30;2.10;;;;;;;6.13;nan;-23988.13;5033146;28;20600;-79
2022/12/01 09:54:51;;;;;;;2.10;1.80;;;;;;;6.78;nan;-24006.13;5029782;28;20651;-77
2022/12/01 09:57:30;;;;;;;2.23;1.90;;;;;;;6.46;nan;-23997.19;5044955;28;20263;-78
2022/12/01 09:59:57;;;;;;;1.90;1.80;;;;;;;6.67;nan;-24003.16;5036798;28;20186;-78
2022/12/01 10:02:41;;;;;;;2.10;1.90;;;;;;;6.59;nan;-24000.88;5030330;28;20285;-78
2022/12/01 10:05:15;;;;;;;2.13;1.93;;;;;;;6.54;nan;-23999.47;5030469;28;20250;-79
2022/12/01 10:07:57;;;;;;;2.60;1.90;;;;;;;6.54;nan;-23999.63;5031332;28;20175;-78
2022/12/01 10:10:25;;;;;;;2.47;1.87;;;;;;;6.79;nan;-24006.56;5032583;28;20202;-78
2022/12/01 10:12:51;;;;;;;1.70;1.60;;;;;;;6.38;nan;-23994.94;5032909;28;20195;-78
2022/12/01 10:15:39;;;;;;;3.43;1.90;;;;;;;6.76;nan;-24005.72;5031087;28;20179;-78
2022/12/01 10:18:04;;;;;;;1.67;1.57;;;;;;;6.69;nan;-24003.72;5030724;28;20296;-79
2022/12/01 10:20:39;;;;;;;1.90;1.70;;;;;;;6.96;nan;-24011.25;5032315;28;20269;-78
2022/12/01 10:23:14;;;;;;;2.00;1.90;;;;;;;6.55;nan;-23999.91;5031296;28;20288;-78
2022/12/01 10:25:59;;;;;;;1.90;1.80;;;;;;;6.72;nan;-24004.44;5032379;28;20199;-80
2022/12/01 10:28:52;;;;;;;2.17;1.97;;;;;;;6.50;nan;-23998.34;5030667;28;20636;-76
2022/12/01 10:31:27;;;;;;;2.73;2.03;;;;;;;6.12;nan;-23987.81;5032459;28;20164;-78
2022/12/01 10:34:03;;;;;;;3.53;1.80;;;;;;;6.42;nan;-23996.06;5030281;28;20269;-78
2022/12/01 10:36:32;;;;;;;2.00;1.80;;;;;;;6.19;nan;-23989.69;5030097;28;20542;-77
2022/12/01 10:38:58;;;;;;;2.23;2.00;;;;;;;6.37;nan;-23994.78;5031134;28;20198;-78
2022/12/01 10:41:26;;;;;;;2.27;2.07;;;;;;;6.07;nan;-23986.25;5031679;28;20266;-78
2022/12/01 10:43:59;;;;;;;1.90;1.80;;;;;;;6.06;nan;-23985.97;5030342;28;20211;-78
2022/12/01 10:46:34;;;;;;;2.37;2.17;;;;;;;6.30;nan;-23992.66;5032059;28;20278;-78
2022/12/01 10:49:07;;;;;;;3.57;2.00;;;;;;;6.07;nan;-23986.25;5032110;28;20186;-78
2022/12/01 10:51:57;;;;;;;2.27;1.70;;;;;;;6.26;nan;-23991.53;5031687;28;20654;-78
2022/12/01 10:54:30;;;;;;;2.20;2.00;;;;;;;6.17;nan;-23989.25;5031527;28;20639;-78
2022/12/01 10:56:57;;;;;;;2.00;1.70;;;;;;;5.97;nan;-23983.41;5031678;28;20175;-77
2022/12/01 10:59:45;;;;;;;2.50;1.77;;;;;;;5.14;nan;-23960.25;5030310;28;20210;-78
2022/12/01 11:02:18;;;;;;;2.33;2.13;;;;;;;6.20;nan;-23989.97;5017150;28;20292;-78
2022/12/01 11:05:05;;;;;;;2.00;1.90;;;;;;;6.17;nan;-23989.25;5031519;28;20677;-78
2022/12/01 11:07:40;;;;;;;2.50;1.67;;;;;;;6.12;nan;-23987.69;5030005;28;20175;-78
2022/12/01 11:10:20;;;;;;;2.20;1.93;;;;;;;6.25;nan;-23991.38;5032465;28;20175;-79
2022/12/01 11:13:14;;;;;;;1.83;1.73;;;;;;;6.13;nan;-23987.97;5030219;28;20227;-79
2022/12/01 11:15:52;;;;;;;1.70;1.60;;;;;;;6.09;nan;-23986.97;5031723;28;20171;-79
2022/12/01 11:18:26;;;;;;;1.83;1.73;;;;;;;6.29;nan;-23992.38;5035639;28;20214;-78
2022/12/01 11:21:10;;;;;;;1.63;1.53;;;;;;;6.32;nan;-23993.22;5035139;28;20159;-78
2022/12/01 11:23:44;;;;;;;2.17;1.97;;;;;;;6.39;nan;-23995.22;5033699;28;20205;-78
2022/12/01 11:26:12;;;;;;;2.53;1.90;;;;;;;6.36;nan;-23994.34;5034127;28;20243;-80
2022/12/01 11:29:01;;;;;;;1.67;1.47;;;;;;;6.52;nan;-23998.91;5034262;28;20182;-78
2022/12/01 11:31:39;;;;;;;2.27;1.83;;;;;;;6.50;nan;-23998.34;5035098;28;20191;-78
2022/12/01 11:34:17;;;;;;;1.90;1.80;;;;;;;6.47;nan;-23997.63;5032158;28;20254;-78
2022/12/01 11:36:47;;;;;;;2.20;2.00;;;;;;;6.24;nan;-23990.94;5035036;28;20163;-77
2022/12/01 11:39:33;;;;;;;3.70;1.93;;;;;;;6.30;nan;-23992.66;5033392;28;20645;-78
2022/12/01 11:42:02;;;;;;;1.97;1.77;;;;;;;6.53;nan;-23999.19;5033205;28;20182;-79
2022/12/01 11:44:30;;;;;;;2.53;2.33;;;;;;;6.60;nan;-24001.31;5033027;28;20237;-78
2022/12/01 11:46:57;;;;;;;2.73;2.33;;;;;;;6.55;nan;-23999.75;5032906;28;20662;-78
2022/12/01 11:49:24;;;;;;;2.17;1.97;;;;;;;6.60;nan;-24001.31;5033167;28;20176;-78
2022/12/01 11:51:50;;;;;;;2.60;2.40;;;;;;;6.26;nan;-23991.53;5033194;28;20216;-79
2022/12/01 11:54:21;;;;;;;2.57;2.10;;;;;;;6.50;nan;-23998.34;5032942;28;20258;-78
2022/12/01 11:56:48;;;;;;;4.70;2.07;;;;;;;6.33;nan;-23993.50;5034635;28;20245;-78
2022/12/01 11:59:22;;;;;;;1.60;1.50;;;;;;;6.18;nan;-23989.38;5033048;28;20218;-79
2022/12/01 12:02:10;;;;;;;2.67;2.13;;;;;;;6.59;nan;-24001.03;5032928;28;20253;-79
2022/12/01 12:04:54;;;;;;;1.97;1.60;;;;;;;6.79;nan;-24006.56;5034001;28;20175;-78
2022/12/01 12:07:34;;;;;;;1.87;1.50;;;;;;;6.89;nan;-24009.41;5033557;28;20172;-78